createdAt,value
2019-03-09T00:01:31.378Z,96349.33
2019-03-09T00:04:40.465Z,96321.39
2019-03-09T00:07:22.709Z,96339.05
2019-03-09T00:10:05.844Z,96320.04
2019-03-09T00:12:55.572Z,96343.71
2019-03-09T00:15:47.075Z,96339.84
2019-03-09T00:18:29.583Z,96336.33
2019-03-09T00:21:19.359Z,96323.45
2019-03-09T00:24:27.926Z,96311.00
2019-03-09T00:27:18.123Z,96318.72
2019-03-09T00:30:28.370Z,96338.37
2019-03-09T00:33:18.168Z,96340.55
2019-03-09T00:36:02.283Z,96346.77
2019-03-09T00:38:52.061Z,96346.77
2019-03-09T00:44:22.305Z,96333.77
2019-03-09T00:47:12.065Z,96327.56
2019-03-09T00:50:20.570Z,96321.95
2019-03-09T00:53:10.627Z,96301.36
2019-03-09T00:56:00.463Z,96334.41
2019-03-09T00:58:50.242Z,96330.00
2019-03-09T01:01:40.077Z,96334.27
2019-03-09T01:04:29.803Z,96338.74
2019-03-09T01:07:12.484Z,96341.33
2019-03-09T01:10:02.234Z,96331.22
2019-03-09T01:12:51.982Z,96340.84
2019-03-09T01:15:41.720Z,96333.69
2019-03-09T01:18:24.773Z,96319.88
2019-03-09T01:21:14.583Z,96332.87
2019-03-09T01:23:57.434Z,96321.23
2019-03-09T01:26:39.333Z,96303.44
2019-03-09T01:29:29.131Z,96324.59
2019-03-09T01:32:18.975Z,96321.69
2019-03-09T01:35:08.827Z,96319.73
2019-03-09T01:37:58.586Z,96325.16
2019-03-09T01:40:48.295Z,96323.61
2019-03-09T01:43:30.222Z,96318.75
2019-03-09T01:46:20.087Z,96311.59
2019-03-09T01:49:09.959Z,96315.81
2019-03-09T01:52:00.006Z,96315.25
2019-03-09T01:54:49.778Z,96328.95
2019-03-09T01:57:39.555Z,96335.89
2019-03-09T02:00:29.391Z,96336.16
2019-03-09T02:03:19.215Z,96337.66
2019-03-09T02:06:08.993Z,96305.81
2019-03-09T02:08:58.722Z,96316.00
2019-03-09T02:11:48.498Z,96315.14
2019-03-09T02:14:38.288Z,96324.81
2019-03-09T02:17:28.057Z,96304.64
2019-03-09T02:20:17.901Z,96293.08
2019-03-09T02:23:07.653Z,96275.84
2019-03-09T02:25:57.357Z,96276.98
2019-03-09T02:28:47.037Z,96295.72
2019-03-09T02:31:36.783Z,96294.63
2019-03-09T02:34:18.789Z,96287.70
2019-03-09T02:37:08.877Z,96283.71
2019-03-09T02:43:07.076Z,96257.18
2019-03-09T02:45:50.081Z,96270.91
2019-03-09T02:57:16.129Z,96266.54
2019-03-09T03:00:02.198Z,96275.95
2019-03-09T03:02:48.155Z,96277.14
2019-03-09T03:05:37.903Z,96269.27
2019-03-09T03:08:46.752Z,96255.98
2019-03-09T03:11:28.843Z,96263.84
2019-03-09T03:14:18.750Z,96267.92
2019-03-09T03:17:08.617Z,96255.06
2019-03-09T03:20:17.492Z,96220.75
2019-03-09T03:23:07.239Z,96244.13
2019-03-09T03:25:56.980Z,96243.66
2019-03-09T03:28:39.926Z,96235.89
2019-03-09T03:31:29.869Z,96247.56
2019-03-09T03:34:13.307Z,96216.31
2019-03-09T03:37:03.085Z,96248.92
2019-03-09T03:39:52.948Z,96241.41
2019-03-09T03:42:42.677Z,96245.89
2019-03-09T03:45:24.980Z,96235.67
2019-03-09T03:48:14.746Z,96239.68
2019-03-09T03:51:04.679Z,96241.63
2019-03-09T03:53:54.389Z,96252.33
2019-03-09T03:56:37.257Z,96242.23
2019-03-09T03:59:26.994Z,96250.66
2019-03-09T04:02:16.748Z,96261.53
2019-03-09T04:05:06.750Z,96258.16
2019-03-09T04:07:56.471Z,96271.88
2019-03-09T04:10:38.767Z,96249.48
2019-03-09T04:13:47.607Z,96266.45
2019-03-09T04:16:37.294Z,96276.36
2019-03-09T04:19:27.007Z,96268.79
2019-03-09T04:22:16.727Z,96267.75
2019-03-09T04:24:58.831Z,96288.38
2019-03-09T04:27:48.593Z,96293.43
2019-03-09T04:30:32.232Z,96284.91
2019-03-09T04:33:22.056Z,96286.23
2019-03-09T04:36:04.712Z,96281.94
2019-03-09T04:38:54.431Z,96269.64
2019-03-09T04:41:36.544Z,96295.58
2019-03-09T04:44:27.216Z,96291.28
2019-03-09T04:47:10.378Z,96292.86
2019-03-09T04:50:00.119Z,96296.71
2019-03-09T04:52:49.881Z,96299.64
2019-03-09T04:55:39.618Z,96298.76
2019-03-09T04:58:29.336Z,96299.95
2019-03-09T05:01:11.531Z,96301.34
2019-03-09T05:10:33.172Z,96294.44
2019-03-09T05:13:23.252Z,96290.14
2019-03-09T05:16:13.134Z,96285.66
2019-03-09T05:19:02.899Z,96286.86
2019-03-09T05:21:52.655Z,96293.64
2019-03-09T05:24:42.425Z,96295.98
2019-03-09T05:27:32.292Z,96290.77
2019-03-09T05:30:44.629Z,96286.70
2019-03-09T05:33:34.599Z,96255.85
2019-03-09T05:36:24.381Z,96283.45
2019-03-09T05:39:14.164Z,96286.79
2019-03-09T05:42:03.964Z,96289.83
2019-03-09T05:44:53.838Z,96280.11
2019-03-09T05:47:43.639Z,96281.63
2019-03-09T05:50:33.393Z,96289.83
2019-03-09T05:53:23.657Z,96292.79
2019-03-09T05:56:13.374Z,96286.06
2019-03-09T05:59:03.086Z,96280.06
2019-03-09T06:01:46.903Z,96272.38
2019-03-09T06:04:36.673Z,96294.76
2019-03-09T06:07:19.131Z,96282.16
2019-03-09T06:13:02.268Z,96304.51
2019-03-09T06:15:52.042Z,96304.45
2019-03-09T06:18:41.905Z,96304.96
2019-03-09T06:21:31.700Z,96311.94
2019-03-09T06:24:21.472Z,96343.70
2019-03-09T06:27:11.285Z,96349.84
2019-03-09T06:30:01.028Z,96347.12
2019-03-09T06:33:28.935Z,96345.63
2019-03-09T06:36:30.887Z,96340.20
2019-03-09T06:40:02.605Z,96362.14
2019-03-09T06:42:49.859Z,96373.92
2019-03-09T06:45:31.821Z,96356.14
2019-03-09T06:48:21.619Z,96367.30
2019-03-09T06:51:11.413Z,96383.20
2019-03-09T06:54:01.358Z,96377.05
2019-03-09T06:56:51.302Z,96381.39
2019-03-09T06:59:41.133Z,96357.80
2019-03-09T07:02:30.861Z,96388.87
2019-03-09T07:05:20.588Z,96379.38
2019-03-09T07:08:03.060Z,96387.26
2019-03-09T07:10:52.842Z,96373.79
2019-03-09T07:13:52.102Z,96402.83
2019-03-09T07:16:15.482Z,96416.24
2019-03-09T07:19:06.823Z,96425.06
2019-03-09T07:21:37.518Z,96414.70
2019-03-09T07:24:27.212Z,96421.64
2019-03-09T07:27:09.135Z,96441.61
2019-03-09T07:29:58.832Z,96417.30
2019-03-09T07:33:07.373Z,96423.45
2019-03-09T07:35:57.115Z,96429.92
2019-03-09T07:38:46.819Z,96439.72
2019-03-09T07:41:28.912Z,96441.79
2019-03-09T07:44:18.736Z,96426.19
2019-03-09T07:47:08.609Z,96444.01
2019-03-09T07:49:58.410Z,96432.52
2019-03-09T07:52:48.124Z,96443.14
2019-03-09T07:55:30.476Z,96449.55
2019-03-09T07:58:20.238Z,96448.77
2019-03-09T08:01:10.090Z,96465.75
2019-03-09T08:03:59.940Z,96480.45
2019-03-09T08:06:49.680Z,96478.75
2019-03-09T08:09:31.758Z,96482.59
2019-03-09T08:12:21.524Z,96475.59
2019-03-09T08:15:14.217Z,96488.59
2019-03-09T08:18:03.767Z,96493.31
2019-03-09T08:20:46.140Z,96490.75
2019-03-09T08:23:35.884Z,96488.82
2019-03-09T08:26:25.697Z,96499.60
2019-03-09T08:29:15.481Z,96485.47
2019-03-09T08:32:05.408Z,96520.59
2019-03-09T08:34:55.216Z,96516.79
2019-03-09T08:37:45.114Z,96520.41
2019-03-09T08:40:34.892Z,96513.30
2019-03-09T08:43:24.654Z,96505.92
2019-03-09T08:46:06.985Z,96515.08
2019-03-09T08:48:56.729Z,96496.52
2019-03-09T08:51:39.147Z,96512.56
2019-03-09T08:54:29.434Z,96518.02
2019-03-09T08:57:19.251Z,96508.64
2019-03-09T09:00:15.862Z,96498.66
2019-03-09T09:06:13.335Z,96501.52
2019-03-09T09:09:03.350Z,96494.52
2019-03-09T09:12:12.241Z,96505.27
2019-03-09T09:15:21.147Z,96484.90
2019-03-09T09:18:11.076Z,96506.23
2019-03-09T09:20:53.375Z,96490.52
2019-03-09T09:23:43.107Z,96487.81
2019-03-09T09:27:03.901Z,96485.41
2019-03-09T09:29:45.839Z,96483.95
2019-03-09T09:32:35.711Z,96490.49
2019-03-09T09:35:25.663Z,96487.52
2019-03-09T09:38:15.557Z,96479.67
2019-03-09T09:41:05.235Z,96449.87
2019-03-09T09:43:54.955Z,96455.98
2019-03-09T09:46:37.329Z,96465.80
2019-03-09T09:49:46.149Z,96461.77
2019-03-09T09:52:29.967Z,96450.03
2019-03-09T09:55:19.755Z,96462.26
2019-03-09T09:58:01.967Z,96465.59
2019-03-09T10:00:51.718Z,96478.66
2019-03-09T10:03:34.317Z,96434.20
2019-03-09T10:09:25.735Z,96445.08
2019-03-09T10:12:15.455Z,96456.54
2019-03-09T10:14:57.877Z,96432.71
2019-03-09T10:18:06.746Z,96403.91
2019-03-09T10:20:49.281Z,96409.77
2019-03-09T10:23:39.041Z,96407.06
2019-03-09T10:26:24.680Z,96405.52
2019-03-09T10:29:13.387Z,96370.85
2019-03-09T10:31:55.364Z,96392.17
2019-03-09T10:34:45.097Z,96369.64
2019-03-09T10:37:27.296Z,96371.47
2019-03-09T10:40:17.262Z,96355.12
2019-03-09T10:42:59.539Z,96350.66
2019-03-09T10:45:49.245Z,96369.33
2019-03-09T10:48:31.412Z,96366.75
2019-03-09T10:51:21.263Z,96365.84
2019-03-09T10:54:03.646Z,96328.75
2019-03-09T10:56:53.451Z,96370.11
2019-03-09T10:59:43.277Z,96367.64
2019-03-09T11:02:33.051Z,96349.64
2019-03-09T11:05:22.963Z,96377.31
2019-03-09T11:08:31.789Z,96380.41
2019-03-09T11:11:21.522Z,96392.66
2019-03-09T11:14:04.394Z,96386.27
2019-03-09T11:16:54.167Z,96358.11
2019-03-09T11:19:43.956Z,96381.70
2019-03-09T11:22:33.908Z,96373.58
2019-03-09T11:25:23.642Z,96367.41
2019-03-09T11:28:14.746Z,96354.41
2019-03-09T11:31:17.404Z,96361.99
2019-03-09T11:33:59.925Z,96351.63
2019-03-09T11:36:49.735Z,96358.77
2019-03-09T11:39:32.593Z,96364.00
2019-03-09T11:42:15.932Z,96351.08
2019-03-09T11:44:58.664Z,96365.45
2019-03-09T11:47:48.443Z,96345.97
2019-03-09T11:50:38.216Z,96364.78
2019-03-09T11:53:47.058Z,96355.64
2019-03-09T11:56:36.891Z,96343.97
2019-03-09T11:59:26.703Z,96333.45
2019-03-09T12:02:16.514Z,96309.81
2019-03-09T12:05:06.803Z,96318.41
2019-03-09T12:08:15.650Z,96300.29
2019-03-09T12:11:05.462Z,96306.36
2019-03-09T12:13:55.234Z,96303.46
2019-03-09T12:16:45.076Z,96298.18
2019-03-09T12:19:34.856Z,96291.76
2019-03-09T12:22:24.643Z,96297.61
2019-03-09T12:25:14.603Z,96288.45
2019-03-09T12:28:04.339Z,96286.70
2019-03-09T12:30:54.100Z,96269.16
2019-03-09T12:33:36.266Z,96231.72
2019-03-09T12:36:26.082Z,96234.84
2019-03-09T12:39:15.931Z,96219.83
2019-03-09T12:42:05.725Z,96209.14
2019-03-09T12:48:00.777Z,96199.18
2019-03-09T12:50:43.648Z,96186.90
2019-03-09T12:53:33.364Z,96161.35
2019-03-09T12:56:23.172Z,96106.60
2019-03-09T12:59:12.999Z,96169.55
2019-03-09T13:02:02.771Z,96182.41
2019-03-09T13:04:52.551Z,96201.91
2019-03-09T13:08:01.434Z,96198.61
2019-03-09T13:10:51.242Z,96210.49
2019-03-09T13:13:41.029Z,96222.95
2019-03-09T13:16:30.810Z,96212.03
2019-03-09T13:19:20.579Z,96215.15
2019-03-09T13:22:10.316Z,96221.80
2019-03-09T13:25:00.139Z,96234.06
2019-03-09T13:27:50.051Z,96227.45
2019-03-09T13:30:39.757Z,96231.33
2019-03-09T13:33:29.487Z,96246.54
2019-03-09T13:36:19.201Z,96254.33
2019-03-09T13:39:03.087Z,96255.31
2019-03-09T13:44:54.531Z,96260.59
2019-03-09T13:47:44.255Z,96260.02
2019-03-09T13:50:48.639Z,96249.30
2019-03-09T13:53:19.085Z,96236.22
2019-03-09T13:56:08.965Z,96234.66
2019-03-09T13:58:58.700Z,96237.38
2019-03-09T14:01:41.429Z,96224.69
2019-03-09T14:04:43.768Z,96253.73
2019-03-09T14:07:29.595Z,96214.72
2019-03-09T14:10:19.313Z,96234.27
2019-03-09T14:13:01.687Z,96223.94
2019-03-09T14:15:51.467Z,96218.46
2019-03-09T14:18:34.025Z,96219.45
2019-03-09T14:21:23.905Z,96225.11
2019-03-09T14:24:13.807Z,96231.13
2019-03-09T14:27:03.607Z,96233.69
2019-03-09T14:29:53.509Z,96230.38
2019-03-09T14:32:43.318Z,96228.77
2019-03-09T14:35:33.143Z,96239.69
2019-03-09T14:38:22.994Z,96258.41
2019-03-09T14:41:12.759Z,96249.62
2019-03-09T14:44:02.569Z,96268.28
2019-03-09T14:46:52.295Z,96305.69
2019-03-09T14:49:34.733Z,96301.16
2019-03-09T14:52:24.460Z,96313.03
2019-03-09T14:55:06.841Z,96325.59
2019-03-09T14:57:56.589Z,96341.64
2019-03-09T15:00:38.929Z,96344.63
2019-03-09T15:03:28.676Z,96317.72
2019-03-09T15:06:10.898Z,96364.52
2019-03-09T15:09:00.627Z,96371.75
2019-03-09T15:11:43.114Z,96394.95
2019-03-09T15:14:32.844Z,96401.13
2019-03-09T15:17:15.454Z,96393.83
2019-03-09T15:20:05.464Z,96378.91
2019-03-09T15:22:48.320Z,96382.88
2019-03-09T15:25:38.052Z,96365.70
2019-03-09T15:28:20.953Z,96395.84
2019-03-09T15:31:10.697Z,96366.09
2019-03-09T15:33:55.089Z,96386.03
2019-03-09T15:36:44.826Z,96369.67
2019-03-09T15:39:27.377Z,96367.34
2019-03-09T15:42:17.072Z,96360.27
2019-03-09T15:44:59.631Z,96342.03
2019-03-09T15:47:49.327Z,96331.78
2019-03-09T15:50:31.376Z,96337.67
2019-03-09T15:53:21.098Z,96337.84
2019-03-09T15:56:03.584Z,96351.09
2019-03-09T15:58:53.325Z,96365.05
2019-03-09T16:01:35.724Z,96356.16
2019-03-09T16:04:44.553Z,96334.41
2019-03-09T16:07:26.676Z,96355.58
2019-03-09T16:10:35.534Z,96350.31
2019-03-09T16:13:32.116Z,96347.30
2019-03-09T16:16:21.867Z,96374.84
2019-03-09T16:19:04.721Z,96386.52
2019-03-09T16:21:54.583Z,96404.97
2019-03-09T16:25:03.436Z,96409.67
2019-03-09T16:27:53.254Z,96394.17
2019-03-09T16:30:43.086Z,96381.13
2019-03-09T16:33:32.951Z,96382.20
2019-03-09T16:36:22.757Z,96378.00
2019-03-09T16:39:13.513Z,96371.56
2019-03-09T16:41:56.417Z,96358.58
2019-03-09T16:44:46.118Z,96346.19
2019-03-09T16:47:28.205Z,96385.66
2019-03-09T16:50:17.933Z,96373.47
2019-03-09T16:53:00.264Z,96387.52
2019-03-09T16:55:49.985Z,96409.96
2019-03-09T16:58:31.959Z,96405.89
2019-03-09T17:01:21.676Z,96418.98
2019-03-09T17:04:03.673Z,96442.81
2019-03-09T17:09:54.659Z,96448.25
2019-03-09T17:12:44.361Z,96446.59
2019-03-09T17:15:26.733Z,96463.23
2019-03-09T17:18:16.461Z,96445.99
2019-03-09T17:20:59.152Z,96441.14
2019-03-09T17:23:48.939Z,96446.23
2019-03-09T17:26:31.417Z,96452.86
2019-03-09T17:29:21.145Z,96458.30
2019-03-09T17:32:03.361Z,96421.01
2019-03-09T17:34:53.072Z,96446.23
2019-03-09T17:37:35.214Z,96457.52
2019-03-09T17:40:24.951Z,96473.67
2019-03-09T17:43:07.259Z,96460.97
2019-03-09T17:45:57.007Z,96474.70
2019-03-09T17:48:46.703Z,96472.14
2019-03-09T17:51:29.483Z,96500.02
2019-03-09T17:54:12.868Z,96493.63
2019-03-09T17:56:54.782Z,96477.25
2019-03-09T17:59:44.567Z,96503.55
2019-03-09T18:02:26.968Z,96504.17
2019-03-09T18:08:12.221Z,96491.31
2019-03-09T18:10:50.978Z,96509.74
2019-03-09T18:14:07.017Z,96508.44
2019-03-09T18:16:52.456Z,96506.35
2019-03-09T18:19:35.579Z,96511.80
2019-03-09T18:22:25.309Z,96498.98
2019-03-09T18:28:18.787Z,96518.02
2019-03-09T18:31:08.564Z,96522.17
2019-03-09T18:33:58.333Z,96511.72
2019-03-09T18:36:48.043Z,96500.45
2019-03-09T18:39:30.277Z,96506.97
2019-03-09T18:42:39.124Z,96506.22
2019-03-09T18:45:28.926Z,96517.50
2019-03-09T18:48:18.697Z,96507.18
2019-03-09T18:51:08.476Z,96514.61
2019-03-09T18:53:58.469Z,96514.80
2019-03-09T18:56:48.232Z,96509.73
2019-03-09T18:59:38.024Z,96514.61
2019-03-09T19:02:27.852Z,96505.31
2019-03-09T19:05:17.739Z,96517.73
2019-03-09T19:08:07.527Z,96532.61
2019-03-09T19:10:57.417Z,96529.67
2019-03-09T19:13:40.703Z,96517.17
2019-03-09T19:16:22.887Z,96523.66
2019-03-09T19:19:12.615Z,96497.20
2019-03-09T19:21:55.479Z,96522.22
2019-03-09T19:24:45.307Z,96518.92
2019-03-09T19:27:35.058Z,96511.91
2019-03-09T19:30:24.936Z,96515.72
2019-03-09T19:33:14.705Z,96507.15
2019-03-09T19:36:04.451Z,96514.70
2019-03-09T19:39:13.334Z,96494.27
2019-03-09T19:42:03.174Z,96521.09
2019-03-09T19:44:52.922Z,96517.01
2019-03-09T19:47:42.693Z,96530.63
2019-03-09T19:53:28.303Z,96514.91
2019-03-09T19:56:18.120Z,96523.48
2019-03-09T19:59:07.949Z,96525.84
2019-03-09T20:01:57.898Z,96516.92
2019-03-09T20:04:47.712Z,96526.45
2019-03-09T20:07:37.483Z,96530.91
2019-03-09T20:10:40.672Z,96506.63
2019-03-09T20:13:23.399Z,96522.91
2019-03-09T20:16:13.116Z,96504.30
2019-03-09T20:21:51.484Z,96527.20
2019-03-09T20:24:41.290Z,96532.66
2019-03-09T20:27:31.318Z,96513.78
2019-03-09T20:33:24.767Z,96539.77
2019-03-09T20:36:07.446Z,96551.00
2019-03-09T20:38:57.247Z,96545.50
2019-03-09T20:42:06.080Z,96552.31
2019-03-09T20:44:49.001Z,96532.66
2019-03-09T20:47:38.779Z,96550.72
2019-03-09T20:50:28.650Z,96534.47
2019-03-09T20:53:18.510Z,96531.66
2019-03-09T20:56:20.550Z,96532.80
2019-03-09T20:59:03.050Z,96540.57
2019-03-09T21:01:52.788Z,96530.39
2019-03-09T21:04:34.831Z,96535.79
2019-03-09T21:07:24.552Z,96547.52
2019-03-09T21:10:07.081Z,96560.56
2019-03-09T21:13:01.662Z,96553.92
2019-03-09T21:15:44.216Z,96554.10
2019-03-09T21:18:33.936Z,96541.95
2019-03-09T21:21:16.341Z,96546.67
2019-03-09T21:24:06.047Z,96546.20
2019-03-09T21:26:55.755Z,96538.66
2019-03-09T21:29:45.494Z,96536.11
2019-03-09T21:32:35.201Z,96511.44
2019-03-09T21:35:25.070Z,96528.87
2019-03-09T21:38:14.796Z,96527.50
2019-03-09T21:41:23.282Z,96522.06
2019-03-09T21:44:06.063Z,96515.86
2019-03-09T21:46:55.895Z,96519.67
2019-03-09T21:49:45.704Z,96518.31
2019-03-09T21:52:35.483Z,96503.90
2019-03-09T21:55:25.223Z,96507.19
2019-03-09T21:58:15.061Z,96509.53
2019-03-09T22:01:04.785Z,96502.72
2019-03-09T22:03:54.523Z,96514.78
2019-03-09T22:06:37.485Z,96509.53
2019-03-09T22:09:27.274Z,96507.98
2019-03-09T22:12:17.059Z,96502.72
2019-03-09T22:15:07.658Z,96486.16
2019-03-09T22:17:57.563Z,96489.28
2019-03-09T22:20:47.344Z,96463.36
2019-03-09T22:23:44.043Z,96466.03
2019-03-09T22:26:21.160Z,96437.62
2019-03-09T22:29:10.929Z,96444.54
2019-03-09T22:31:41.566Z,96433.53
2019-03-09T22:34:31.344Z,96448.22
2019-03-09T22:37:21.165Z,96429.73
2019-03-09T22:40:11.324Z,96440.06
2019-03-09T22:43:01.134Z,96443.75
2019-03-09T22:45:50.953Z,96455.58
2019-03-09T22:48:40.711Z,96449.20
2019-03-09T22:51:30.967Z,96463.98
2019-03-09T22:54:20.831Z,96440.47
2019-03-09T23:03:31.804Z,96461.88
2019-03-09T23:06:21.530Z,96455.07
2019-03-09T23:09:05.446Z,96462.80
2019-03-09T23:11:55.147Z,96454.64
2019-03-09T23:14:37.574Z,96456.22
2019-03-09T23:20:28.582Z,96419.54
2019-03-09T23:23:18.306Z,96413.75
2019-03-09T23:26:00.762Z,96430.19
2019-03-09T23:28:51.386Z,96425.09
2019-03-09T23:31:35.729Z,96424.97
2019-03-09T23:34:25.884Z,96433.92
2019-03-09T23:37:10.210Z,96416.97
2019-03-09T23:43:07.293Z,96419.26
2019-03-09T23:49:01.667Z,96413.11
2019-03-09T23:54:50.193Z,96389.41
2019-03-09T23:58:01.495Z,96379.66
